createdAt,value
2019-01-25T00:01:55.194Z,19.77
2019-01-25T00:04:21.350Z,35.63
2019-01-25T00:06:47.544Z,36.30
2019-01-25T00:09:13.694Z,38.50
2019-01-25T00:11:39.849Z,25.40
2019-01-25T00:14:06.032Z,28.23
2019-01-25T00:16:32.194Z,31.67
2019-01-25T00:18:58.344Z,32.60
2019-01-25T00:21:24.637Z,28.50
2019-01-25T00:23:50.987Z,33.93
2019-01-25T00:26:17.514Z,36.60
2019-01-25T00:28:43.753Z,36.53
2019-01-25T00:31:09.951Z,27.80
2019-01-25T00:33:36.114Z,28.17
2019-01-25T00:36:02.404Z,32.43
2019-01-25T00:38:28.672Z,28.60
2019-01-25T00:40:54.856Z,26.63
2019-01-25T00:43:21.044Z,29.70
2019-01-25T00:45:47.198Z,28.00
2019-01-25T00:48:13.366Z,22.73
2019-01-25T00:50:39.548Z,29.37
2019-01-25T00:53:05.710Z,29.57
2019-01-25T00:55:31.856Z,30.00
2019-01-25T00:57:58.143Z,32.63
2019-01-25T01:00:25.795Z,27.13
2019-01-25T01:02:52.248Z,22.10
2019-01-25T01:05:19.728Z,27.67
2019-01-25T01:07:46.580Z,29.47
2019-01-25T01:10:14.219Z,25.70
2019-01-25T01:12:40.719Z,25.20
2019-01-25T01:15:10.282Z,24.67
2019-01-25T01:17:36.548Z,25.17
2019-01-25T01:20:06.441Z,24.60
2019-01-25T01:22:32.591Z,20.83
2019-01-25T01:24:58.747Z,24.47
2019-01-25T01:27:24.939Z,22.30
2019-01-25T01:29:51.097Z,25.10
2019-01-25T01:32:17.245Z,25.67
2019-01-25T01:34:43.526Z,35.00
2019-01-25T01:37:09.814Z,26.83
2019-01-25T01:39:35.935Z,28.30
2019-01-25T01:42:02.354Z,30.20
2019-01-25T01:44:28.510Z,30.20
2019-01-25T01:46:54.663Z,27.63
2019-01-25T01:49:20.843Z,29.43
2019-01-25T01:51:47.005Z,27.30
2019-01-25T01:54:13.158Z,20.50
2019-01-25T01:56:39.348Z,20.77
2019-01-25T01:59:05.509Z,24.13
2019-01-25T02:01:31.652Z,24.63
2019-01-25T02:03:57.846Z,20.23
2019-01-25T02:06:23.991Z,28.97
2019-01-25T02:08:50.139Z,27.70
2019-01-25T02:11:16.323Z,21.77
2019-01-25T02:13:42.475Z,22.20
2019-01-25T02:16:08.638Z,22.93
2019-01-25T02:18:34.822Z,23.80
2019-01-25T02:21:01.081Z,25.77
2019-01-25T02:23:27.218Z,21.63
2019-01-25T02:25:53.403Z,19.27
2019-01-25T02:28:19.562Z,21.37
2019-01-25T02:30:45.718Z,19.97
2019-01-25T02:33:11.910Z,18.60
2019-01-25T02:35:38.066Z,20.83
2019-01-25T02:38:04.225Z,21.87
2019-01-25T02:40:38.597Z,27.10
2019-01-25T02:42:58.513Z,31.17
2019-01-25T02:45:24.660Z,20.63
2019-01-25T02:47:50.843Z,16.73
2019-01-25T02:50:18.598Z,17.17
2019-01-25T02:52:44.760Z,19.83
2019-01-25T02:55:12.710Z,22.73
2019-01-25T02:57:38.867Z,20.43
2019-01-25T03:00:11.446Z,18.77
2019-01-25T03:02:37.644Z,22.43
2019-01-25T03:05:06.725Z,20.17
2019-01-25T03:07:32.972Z,19.30
2019-01-25T03:09:59.168Z,22.17
2019-01-25T03:12:25.326Z,20.80
2019-01-25T03:14:51.487Z,22.57
2019-01-25T03:17:17.662Z,22.77
2019-01-25T03:19:43.810Z,21.17
2019-01-25T03:22:09.957Z,18.80
2019-01-25T03:24:36.161Z,20.43
2019-01-25T03:27:02.523Z,18.93
2019-01-25T03:29:28.677Z,22.47
2019-01-25T03:31:54.885Z,18.87
2019-01-25T03:34:21.127Z,20.40
2019-01-25T03:36:47.285Z,19.83
2019-01-25T03:39:13.569Z,19.33
2019-01-25T03:41:39.718Z,21.57
2019-01-25T03:44:05.883Z,20.93
2019-01-25T03:46:32.064Z,21.23
2019-01-25T03:48:58.319Z,19.33
2019-01-25T03:51:24.482Z,21.13
2019-01-25T03:53:50.759Z,18.53
2019-01-25T03:56:17.015Z,20.83
2019-01-25T03:58:43.169Z,19.67
2019-01-25T04:01:09.346Z,18.17
2019-01-25T04:03:35.502Z,19.27
2019-01-25T04:06:01.655Z,21.70
2019-01-25T04:08:27.843Z,19.67
2019-01-25T04:10:53.999Z,18.90
2019-01-25T04:13:20.148Z,20.80
2019-01-25T04:15:46.331Z,20.17
2019-01-25T04:18:12.489Z,17.00
2019-01-25T04:20:38.642Z,17.33
2019-01-25T04:23:04.828Z,17.00
2019-01-25T04:25:30.981Z,20.23
2019-01-25T04:27:57.138Z,29.63
2019-01-25T04:30:26.224Z,18.93
2019-01-25T04:32:52.617Z,21.63
2019-01-25T04:35:18.749Z,22.03
2019-01-25T04:37:44.925Z,19.23
2019-01-25T04:40:13.277Z,19.63
2019-01-25T04:42:39.434Z,17.53
2019-01-25T04:45:09.075Z,19.90
2019-01-25T04:47:35.239Z,17.97
2019-01-25T04:50:01.397Z,20.03
2019-01-25T04:52:27.693Z,28.43
2019-01-25T04:54:53.849Z,24.30
2019-01-25T04:57:20.012Z,30.73
2019-01-25T04:59:46.307Z,32.57
2019-01-25T05:02:12.554Z,30.30
2019-01-25T05:04:38.824Z,29.27
2019-01-25T05:07:05.201Z,25.47
2019-01-25T05:09:34.956Z,35.67
2019-01-25T05:12:01.113Z,31.43
2019-01-25T05:14:30.807Z,18.20
2019-01-25T05:16:56.965Z,27.43
2019-01-25T05:19:23.119Z,34.40
2019-01-25T05:21:49.325Z,36.90
2019-01-25T05:24:15.477Z,34.23
2019-01-25T05:26:41.625Z,32.93
2019-01-25T05:29:07.806Z,41.57
2019-01-25T05:31:34.070Z,35.47
2019-01-25T05:34:00.227Z,33.47
2019-01-25T05:36:26.417Z,33.87
2019-01-25T05:38:52.570Z,36.50
2019-01-25T05:41:18.717Z,34.47
2019-01-25T05:43:45.013Z,29.00
2019-01-25T05:46:11.330Z,32.13
2019-01-25T05:48:37.647Z,23.43
2019-01-25T05:51:03.911Z,39.10
2019-01-25T05:53:30.059Z,33.50
2019-01-25T05:55:56.213Z,36.13
2019-01-25T05:58:22.501Z,37.10
2019-01-25T06:00:48.761Z,33.47
2019-01-25T06:03:15.038Z,25.80
2019-01-25T06:05:41.228Z,46.93
2019-01-25T06:08:28.281Z,40.50
2019-01-25T06:10:54.469Z,42.60
2019-01-25T06:13:20.633Z,42.77
2019-01-25T06:15:46.899Z,47.53
2019-01-25T06:18:13.091Z,33.60
2019-01-25T06:20:39.361Z,61.97
2019-01-25T06:23:05.507Z,41.23
2019-01-25T06:25:31.689Z,37.77
2019-01-25T06:27:58.208Z,40.57
2019-01-25T06:30:24.360Z,53.10
2019-01-25T06:32:50.659Z,46.20
2019-01-25T06:35:16.812Z,44.37
2019-01-25T06:37:42.965Z,41.50
2019-01-25T06:40:11.160Z,44.50
2019-01-25T06:42:37.325Z,49.07
2019-01-25T06:45:10.292Z,46.77
2019-01-25T06:47:36.545Z,51.87
2019-01-25T06:50:08.098Z,54.00
2019-01-25T06:52:34.268Z,38.10
2019-01-25T06:55:00.473Z,56.03
2019-01-25T06:57:28.530Z,38.53
2019-01-25T06:59:54.696Z,39.03
2019-01-25T07:02:21.489Z,48.07
2019-01-25T07:04:47.644Z,18.80
2019-01-25T07:07:15.705Z,49.50
2019-01-25T07:09:41.890Z,44.70
2019-01-25T07:12:08.046Z,36.07
2019-01-25T07:14:34.200Z,35.60
2019-01-25T07:17:00.386Z,49.90
2019-01-25T07:19:26.538Z,37.30
2019-01-25T07:21:52.696Z,29.50
2019-01-25T07:24:18.986Z,46.07
2019-01-25T07:26:45.160Z,43.07
2019-01-25T07:29:11.430Z,40.90
2019-01-25T07:31:37.602Z,39.90
2019-01-25T07:34:03.759Z,50.40
2019-01-25T07:36:29.958Z,32.10
2019-01-25T07:38:56.341Z,42.90
2019-01-25T07:41:22.651Z,47.73
2019-01-25T07:43:48.824Z,45.20
2019-01-25T07:46:15.295Z,43.73
2019-01-25T07:48:42.465Z,42.43
2019-01-25T07:51:08.629Z,51.13
2019-01-25T07:53:34.840Z,56.33
2019-01-25T07:56:00.985Z,54.07
2019-01-25T07:58:27.133Z,49.33
2019-01-25T08:00:53.468Z,59.80
2019-01-25T08:03:19.805Z,39.60
2019-01-25T08:05:45.940Z,37.83
2019-01-25T08:08:12.242Z,62.83
2019-01-25T08:10:38.680Z,37.30
2019-01-25T08:13:04.968Z,43.37
2019-01-25T08:15:31.257Z,40.23
2019-01-25T08:17:57.409Z,41.07
2019-01-25T08:20:23.587Z,26.77
2019-01-25T08:22:50.104Z,25.57
2019-01-25T08:25:16.561Z,40.80
2019-01-25T08:27:42.884Z,41.13
2019-01-25T08:30:15.536Z,38.03
2019-01-25T08:32:41.710Z,40.57
2019-01-25T08:35:09.889Z,39.00
2019-01-25T08:37:36.144Z,40.00
2019-01-25T08:40:03.825Z,39.73
2019-01-25T08:42:30.057Z,38.40
2019-01-25T08:44:56.256Z,44.37
2019-01-25T08:47:22.402Z,37.40
2019-01-25T08:49:49.027Z,44.00
2019-01-25T08:52:15.347Z,39.90
2019-01-25T08:54:41.566Z,30.63
2019-01-25T08:57:07.711Z,48.80
2019-01-25T08:59:33.973Z,37.77
2019-01-25T09:02:00.162Z,41.00
2019-01-25T09:04:26.417Z,44.23
2019-01-25T09:06:52.706Z,23.03
2019-01-25T09:09:18.859Z,35.33
2019-01-25T09:11:45.013Z,42.53
2019-01-25T09:14:11.302Z,42.90
2019-01-25T09:16:37.453Z,38.67
2019-01-25T09:19:03.710Z,18.73
2019-01-25T09:21:29.905Z,28.70
2019-01-25T09:23:56.056Z,23.07
2019-01-25T09:26:22.208Z,39.40
2019-01-25T09:28:48.450Z,37.60
2019-01-25T09:31:14.622Z,35.90
2019-01-25T09:33:40.774Z,41.60
2019-01-25T09:36:06.975Z,42.47
2019-01-25T09:38:34.193Z,34.87
2019-01-25T09:41:00.581Z,52.90
2019-01-25T09:43:26.781Z,44.20
2019-01-25T09:45:52.930Z,26.33
2019-01-25T09:48:19.098Z,25.53
2019-01-25T09:50:52.530Z,44.63
2019-01-25T09:53:13.412Z,39.17
2019-01-25T09:55:39.578Z,45.93
2019-01-25T09:58:11.990Z,40.40
2019-01-25T10:00:56.807Z,41.03
2019-01-25T10:03:23.103Z,33.47
2019-01-25T10:05:49.261Z,33.93
2019-01-25T10:08:15.527Z,36.87
2019-01-25T10:10:41.816Z,29.87
2019-01-25T10:13:07.976Z,47.53
2019-01-25T10:15:34.243Z,42.60
2019-01-25T10:18:00.468Z,32.33
2019-01-25T10:20:26.625Z,22.80
2019-01-25T10:22:52.888Z,32.90
2019-01-25T10:25:19.077Z,29.90
2019-01-25T10:27:45.234Z,31.43
2019-01-25T10:30:15.113Z,36.33
2019-01-25T10:32:41.398Z,32.00
2019-01-25T10:35:09.457Z,26.83
2019-01-25T10:37:35.625Z,25.00
2019-01-25T10:40:02.625Z,32.30
2019-01-25T10:42:28.896Z,32.70
2019-01-25T10:44:55.161Z,33.00
2019-01-25T10:47:21.390Z,34.80
2019-01-25T10:49:47.622Z,23.10
2019-01-25T10:52:14.736Z,26.50
2019-01-25T10:54:41.019Z,30.80
2019-01-25T10:57:07.174Z,29.60
2019-01-25T10:59:33.331Z,33.03
2019-01-25T11:01:59.546Z,33.87
2019-01-25T11:04:25.803Z,34.30
2019-01-25T11:06:51.959Z,22.13
2019-01-25T11:09:18.153Z,33.03
2019-01-25T11:11:44.309Z,27.67
2019-01-25T11:14:10.564Z,32.10
2019-01-25T11:16:36.843Z,37.13
2019-01-25T11:19:03.046Z,24.60
2019-01-25T11:21:29.198Z,44.13
2019-01-25T11:23:55.398Z,38.87
2019-01-25T11:26:21.645Z,42.70
2019-01-25T11:28:47.795Z,38.87
2019-01-25T11:31:13.985Z,41.53
2019-01-25T11:33:40.239Z,55.97
2019-01-25T11:36:06.403Z,55.63
2019-01-25T11:38:32.599Z,40.23
2019-01-25T11:40:58.868Z,39.33
2019-01-25T11:43:26.267Z,29.07
2019-01-25T11:45:54.367Z,26.40
2019-01-25T11:48:20.626Z,30.63
2019-01-25T11:50:46.800Z,18.67
2019-01-25T11:53:13.016Z,20.30
2019-01-25T11:55:39.183Z,20.80
2019-01-25T11:58:05.445Z,21.07
2019-01-25T12:00:32.728Z,16.03
2019-01-25T12:02:58.885Z,20.57
2019-01-25T12:05:25.140Z,21.07
2019-01-25T12:07:52.543Z,20.83
2019-01-25T12:10:21.223Z,19.90
2019-01-25T12:12:47.412Z,19.07
2019-01-25T12:15:15.470Z,20.93
2019-01-25T12:17:41.724Z,17.60
2019-01-25T12:20:11.719Z,18.73
2019-01-25T12:22:38.043Z,20.30
2019-01-25T12:25:07.367Z,23.73
2019-01-25T12:27:33.518Z,22.93
2019-01-25T12:29:59.786Z,22.70
2019-01-25T12:32:25.952Z,26.53
2019-01-25T12:34:52.111Z,25.13
2019-01-25T12:37:18.407Z,35.23
2019-01-25T12:39:44.561Z,29.03
2019-01-25T12:42:10.712Z,22.73
2019-01-25T12:44:37.002Z,22.97
2019-01-25T12:47:03.157Z,29.87
2019-01-25T12:49:29.320Z,27.80
2019-01-25T12:51:55.620Z,24.87
2019-01-25T12:54:21.833Z,21.43
2019-01-25T12:56:47.991Z,20.53
2019-01-25T12:59:14.182Z,23.03
2019-01-25T13:01:40.559Z,24.07
2019-01-25T13:04:06.731Z,23.23
2019-01-25T13:06:32.916Z,24.17
2019-01-25T13:08:59.085Z,27.90
2019-01-25T13:11:25.293Z,22.20
2019-01-25T13:13:53.299Z,22.00
2019-01-25T13:16:19.468Z,23.83
2019-01-25T13:18:45.632Z,27.47
2019-01-25T13:21:13.732Z,20.67
2019-01-25T13:23:39.888Z,21.23
2019-01-25T13:26:06.090Z,21.93
2019-01-25T13:28:32.444Z,30.53
2019-01-25T13:30:58.706Z,21.10
2019-01-25T13:33:24.870Z,21.63
2019-01-25T13:35:51.070Z,21.90
2019-01-25T13:38:17.222Z,22.30
2019-01-25T13:40:43.787Z,25.80
2019-01-25T13:43:10.112Z,31.43
2019-01-25T13:45:36.268Z,26.27
2019-01-25T13:48:04.240Z,24.83
2019-01-25T13:50:30.435Z,29.80
2019-01-25T13:52:56.600Z,27.17
2019-01-25T13:55:27.075Z,31.23
2019-01-25T13:57:53.267Z,31.83
2019-01-25T14:00:51.026Z,36.73
2019-01-25T14:03:17.223Z,45.80
2019-01-25T14:05:43.378Z,46.73
2019-01-25T14:08:09.662Z,38.40
2019-01-25T14:10:36.283Z,41.57
2019-01-25T14:13:04.750Z,43.70
2019-01-25T14:15:30.918Z,48.30
2019-01-25T14:17:57.246Z,48.43
2019-01-25T14:20:29.341Z,39.80
2019-01-25T14:22:55.518Z,54.80
2019-01-25T14:25:21.924Z,43.70
2019-01-25T14:27:49.408Z,42.43
2019-01-25T14:30:30.742Z,47.77
2019-01-25T14:32:56.926Z,53.83
2019-01-25T14:35:23.084Z,62.00
2019-01-25T14:37:49.360Z,40.97
2019-01-25T14:40:15.518Z,44.17
2019-01-25T14:42:41.783Z,28.53
2019-01-25T14:45:11.476Z,42.30
2019-01-25T14:47:37.651Z,36.20
2019-01-25T14:50:07.513Z,47.30
2019-01-25T14:52:33.721Z,45.57
2019-01-25T14:54:59.875Z,54.37
2019-01-25T14:57:26.066Z,57.27
2019-01-25T14:59:52.378Z,161.03
2019-01-25T15:02:18.546Z,54.50
2019-01-25T15:04:44.727Z,96.47
2019-01-25T15:07:10.892Z,75.57
2019-01-25T15:09:38.114Z,66.40
2019-01-25T15:12:04.508Z,70.13
2019-01-25T15:14:30.694Z,68.47
2019-01-25T15:16:56.910Z,56.53
2019-01-25T15:19:23.027Z,53.97
2019-01-25T15:21:50.833Z,48.73
2019-01-25T15:24:17.287Z,56.97
2019-01-25T15:26:43.972Z,67.10
2019-01-25T15:29:10.281Z,73.47
2019-01-25T15:31:36.511Z,63.40
2019-01-25T15:34:02.839Z,63.83
2019-01-25T15:36:29.032Z,64.63
2019-01-25T15:38:55.294Z,63.47
2019-01-25T15:41:21.628Z,56.10
2019-01-25T15:43:47.820Z,54.57
2019-01-25T15:46:13.980Z,61.97
2019-01-25T15:48:40.142Z,76.20
2019-01-25T15:51:06.342Z,72.17
2019-01-25T15:53:32.504Z,106.30
2019-01-25T15:55:58.670Z,101.30
2019-01-25T15:58:24.898Z,93.53
2019-01-25T16:00:51.065Z,106.73
2019-01-25T16:03:17.329Z,122.40
2019-01-25T16:05:43.522Z,125.77
2019-01-25T16:08:09.782Z,116.43
2019-01-25T16:10:35.937Z,123.40
2019-01-25T16:13:02.127Z,112.07
2019-01-25T16:15:28.575Z,105.00
2019-01-25T16:17:54.731Z,93.10
2019-01-25T16:20:21.419Z,99.33
2019-01-25T16:22:49.718Z,88.47
2019-01-25T16:25:27.250Z,69.90
2019-01-25T16:27:53.505Z,81.20
2019-01-25T16:30:22.463Z,82.53
2019-01-25T16:32:48.764Z,82.80
2019-01-25T16:35:15.425Z,66.57
2019-01-25T16:37:41.580Z,90.93
2019-01-25T16:40:11.071Z,74.97
2019-01-25T16:42:37.247Z,86.83
2019-01-25T16:45:07.010Z,70.60
2019-01-25T16:47:33.296Z,79.23
2019-01-25T16:49:59.555Z,81.53
2019-01-25T16:52:25.710Z,82.90
2019-01-25T16:54:51.911Z,71.87
2019-01-25T16:57:18.076Z,76.43
2019-01-25T16:59:44.237Z,115.83
2019-01-25T17:02:10.420Z,114.73
2019-01-25T17:04:36.683Z,198.50
2019-01-25T17:07:02.938Z,114.50
2019-01-25T17:09:29.140Z,91.00
2019-01-25T17:11:55.392Z,89.63
2019-01-25T17:14:21.672Z,89.80
2019-01-25T17:16:48.034Z,87.70
2019-01-25T17:19:16.017Z,89.73
2019-01-25T17:21:42.172Z,73.83
2019-01-25T17:24:08.368Z,75.73
2019-01-25T17:26:34.524Z,54.90
2019-01-25T17:29:00.687Z,54.30
2019-01-25T17:31:26.902Z,64.27
2019-01-25T17:33:53.166Z,52.83
2019-01-25T17:36:19.322Z,51.80
2019-01-25T17:38:45.525Z,41.43
2019-01-25T17:41:11.781Z,45.43
2019-01-25T17:43:37.941Z,73.27
2019-01-25T17:46:04.233Z,53.20
2019-01-25T17:48:30.390Z,39.53
2019-01-25T17:50:56.548Z,34.13
2019-01-25T17:53:22.741Z,41.77
2019-01-25T17:55:49.003Z,34.97
2019-01-25T17:58:15.362Z,35.33
2019-01-25T18:00:43.650Z,37.03
2019-01-25T18:03:09.788Z,41.10
2019-01-25T18:05:36.044Z,39.27
2019-01-25T18:08:02.343Z,31.50
2019-01-25T18:10:28.606Z,27.90
2019-01-25T18:12:54.784Z,31.40
2019-01-25T18:15:21.080Z,44.77
2019-01-25T18:17:47.331Z,35.83
2019-01-25T18:20:16.196Z,28.17
2019-01-25T18:22:42.494Z,32.13
2019-01-25T18:25:11.787Z,23.47
2019-01-25T18:27:41.373Z,26.43
2019-01-25T18:30:34.281Z,30.03
2019-01-25T18:33:02.821Z,23.83
2019-01-25T18:35:29.015Z,28.03
2019-01-25T18:37:55.191Z,25.20
2019-01-25T18:40:23.370Z,16.63
2019-01-25T18:42:53.829Z,29.63
2019-01-25T18:45:21.907Z,25.40
2019-01-25T18:47:48.128Z,28.77
2019-01-25T18:50:15.083Z,24.50
2019-01-25T18:52:41.333Z,24.33
2019-01-25T18:55:13.708Z,19.63
2019-01-25T18:57:41.778Z,23.47
2019-01-25T19:00:14.459Z,17.73
2019-01-25T19:02:40.805Z,20.80
2019-01-25T19:05:08.763Z,25.97
2019-01-25T19:07:34.950Z,22.23
2019-01-25T19:10:02.524Z,18.87
2019-01-25T19:12:28.684Z,21.10
2019-01-25T19:14:54.884Z,19.07
2019-01-25T19:17:21.056Z,16.73
2019-01-25T19:19:47.312Z,17.33
2019-01-25T19:22:13.615Z,17.53
2019-01-25T19:24:39.766Z,14.40
2019-01-25T19:27:06.048Z,45.40
2019-01-25T19:29:32.236Z,26.63
2019-01-25T19:31:58.391Z,25.50
2019-01-25T19:34:24.767Z,44.67
2019-01-25T19:36:54.209Z,61.13
2019-01-25T19:39:20.382Z,39.67
2019-01-25T19:41:46.540Z,48.77
2019-01-25T19:44:13.227Z,41.43
2019-01-25T19:46:39.435Z,35.73
2019-01-25T19:49:05.588Z,33.83
2019-01-25T19:51:31.772Z,42.47
2019-01-25T19:53:57.927Z,37.83
2019-01-25T19:56:24.078Z,34.73
2019-01-25T19:58:50.319Z,48.20
2019-01-25T20:01:16.677Z,48.30
2019-01-25T20:03:43.686Z,31.23
2019-01-25T20:06:09.987Z,23.40
2019-01-25T20:08:36.251Z,42.07
2019-01-25T20:11:02.399Z,23.50
2019-01-25T20:13:28.612Z,32.80
2019-01-25T20:15:54.877Z,18.67
2019-01-25T20:18:21.036Z,20.10
2019-01-25T20:20:47.361Z,16.57
2019-01-25T20:23:13.519Z,21.53
2019-01-25T20:25:39.670Z,18.13
2019-01-25T20:28:08.058Z,20.40
2019-01-25T20:30:37.709Z,17.97
2019-01-25T20:33:04.369Z,14.80
2019-01-25T20:35:33.062Z,22.83
2019-01-25T20:37:59.341Z,15.60
2019-01-25T20:40:25.509Z,30.73
2019-01-25T20:42:51.708Z,56.40
2019-01-25T20:45:27.267Z,21.10
2019-01-25T20:47:51.913Z,24.40
2019-01-25T20:50:20.919Z,26.43
2019-01-25T20:52:47.071Z,30.33
2019-01-25T20:55:21.185Z,24.90
2019-01-25T20:57:47.464Z,14.47
2019-01-25T21:00:17.081Z,18.00
2019-01-25T21:02:43.463Z,14.73
2019-01-25T21:05:09.747Z,22.07
2019-01-25T21:07:35.923Z,23.03
2019-01-25T21:10:03.803Z,23.57
2019-01-25T21:12:30.018Z,28.70
2019-01-25T21:14:56.186Z,40.63
2019-01-25T21:17:22.348Z,39.90
2019-01-25T21:19:48.638Z,33.07
2019-01-25T21:22:14.794Z,33.80
2019-01-25T21:24:41.051Z,30.80
2019-01-25T21:27:07.241Z,31.90
2019-01-25T21:29:34.260Z,21.17
2019-01-25T21:32:00.534Z,14.63
2019-01-25T21:34:27.093Z,15.13
2019-01-25T21:36:53.251Z,14.13
2019-01-25T21:39:19.405Z,14.83
2019-01-25T21:41:45.610Z,14.57
2019-01-25T21:44:11.867Z,15.47
2019-01-25T21:46:40.426Z,15.43
2019-01-25T21:49:06.110Z,20.07
2019-01-25T21:51:32.636Z,15.07
2019-01-25T21:53:58.916Z,14.37
2019-01-25T21:56:25.126Z,58.10
2019-01-25T21:58:51.389Z,30.67
2019-01-25T22:01:17.575Z,34.43
2019-01-25T22:03:43.769Z,29.53
2019-01-25T22:06:09.938Z,21.47
2019-01-25T22:08:36.089Z,23.03
2019-01-25T22:11:02.577Z,28.97
2019-01-25T22:13:28.729Z,28.27
2019-01-25T22:15:54.990Z,24.97
2019-01-25T22:18:21.327Z,23.80
2019-01-25T22:20:47.588Z,34.73
2019-01-25T22:23:13.911Z,26.10
2019-01-25T22:25:40.090Z,22.00
2019-01-25T22:28:06.252Z,25.03
2019-01-25T22:30:35.483Z,21.30
2019-01-25T22:33:01.689Z,11.33
2019-01-25T22:35:27.942Z,14.20
2019-01-25T22:37:54.108Z,12.17
2019-01-25T22:40:24.341Z,13.90
2019-01-25T22:42:50.656Z,18.27
2019-01-25T22:45:19.014Z,17.33
2019-01-25T22:47:45.211Z,14.73
2019-01-25T22:50:14.964Z,12.90
2019-01-25T22:52:41.126Z,13.33
2019-01-25T22:55:10.816Z,13.13
2019-01-25T22:57:37.070Z,13.00
2019-01-25T23:00:06.836Z,14.30
2019-01-25T23:02:33.016Z,15.30
2019-01-25T23:05:14.744Z,17.30
2019-01-25T23:07:41.036Z,16.17
2019-01-25T23:10:09.302Z,9.40
2019-01-25T23:12:35.917Z,10.47
2019-01-25T23:15:03.172Z,4.83
2019-01-25T23:17:29.327Z,11.90
2019-01-25T23:19:55.482Z,13.70
2019-01-25T23:22:21.776Z,10.47
2019-01-25T23:24:47.927Z,17.00
2019-01-25T23:27:14.086Z,10.57
2019-01-25T23:29:40.268Z,13.23
2019-01-25T23:32:06.425Z,16.97
2019-01-25T23:34:32.718Z,16.90
2019-01-25T23:36:58.979Z,17.20
2019-01-25T23:39:25.137Z,11.00
2019-01-25T23:41:51.297Z,11.00
2019-01-25T23:44:17.481Z,15.57
2019-01-25T23:46:43.733Z,13.37
2019-01-25T23:49:09.893Z,12.40
2019-01-25T23:51:36.086Z,14.97
2019-01-25T23:54:02.738Z,12.17
2019-01-25T23:56:28.993Z,14.63
2019-01-25T23:58:55.190Z,11.23
